createdAt,value
2023-03-18T00:00:01.150Z,100676.86
2023-03-18T00:03:50.654Z,100682.92
2023-03-18T00:07:19.213Z,100684.31
2023-03-18T00:10:46.974Z,100685.39
2023-03-18T00:14:25.744Z,100683.70
2023-03-18T00:17:55.647Z,100686.12
2023-03-18T00:21:24.847Z,100678.11
2023-03-18T00:24:53.671Z,100671.65
2023-03-18T00:28:21.195Z,100668.23
2023-03-18T00:31:49.423Z,100669.16
2023-03-18T00:35:17.454Z,100668.52
2023-03-18T00:38:49.469Z,100667.36
2023-03-18T00:42:17.777Z,100662.10
2023-03-18T00:45:45.641Z,100666.27
2023-03-18T00:49:12.797Z,100664.08
2023-03-18T00:52:40.727Z,100660.21
2023-03-18T00:56:09.110Z,100655.28
2023-03-18T00:59:37.091Z,100646.06
2023-03-18T01:03:09.454Z,100638.21
2023-03-18T01:06:39.584Z,100639.83
2023-03-18T01:10:10.885Z,100635.23
2023-03-18T01:13:39.281Z,100635.29
2023-03-18T01:17:07.481Z,100638.47
2023-03-18T01:20:35.638Z,100640.73
2023-03-18T01:24:04.761Z,100642.14
2023-03-18T01:27:33.811Z,100637.73
2023-03-18T01:31:03.963Z,100637.75
2023-03-18T01:34:31.200Z,100629.56
2023-03-18T01:41:27.476Z,100628.81
2023-03-18T01:45:20.058Z,100627.63
2023-03-18T01:48:48.911Z,100623.23
2023-03-18T01:52:20.449Z,100622.07
2023-03-18T01:55:52.458Z,100628.81
2023-03-18T01:59:23.357Z,100636.60
2023-03-18T02:02:53.952Z,100632.02
2023-03-18T02:06:21.330Z,100630.15
2023-03-18T02:10:00.798Z,100626.96
2023-03-18T02:13:28.948Z,100627.71
2023-03-18T02:17:02.347Z,100630.66
2023-03-18T02:20:42.577Z,100627.61
2023-03-18T02:24:24.483Z,100625.58
2023-03-18T02:27:56.433Z,100622.35
2023-03-18T02:31:27.554Z,100622.92
2023-03-18T02:34:55.879Z,100628.23
2023-03-18T02:38:25.215Z,100624.12
2023-03-18T02:41:55.573Z,100624.52
2023-03-18T02:45:37.995Z,100626.63
2023-03-18T02:49:12.373Z,100623.54
2023-03-18T02:52:40.113Z,100619.26
2023-03-18T02:56:09.514Z,100621.14
2023-03-18T02:59:36.878Z,100621.67
2023-03-18T03:03:08.467Z,100620.48
2023-03-18T03:06:38.551Z,100616.58
2023-03-18T03:10:08.612Z,100616.41
2023-03-18T03:13:36.149Z,100609.89
2023-03-18T03:17:04.543Z,100606.31
2023-03-18T03:20:33.891Z,100608.05
2023-03-18T03:24:02.047Z,100610.64
2023-03-18T03:27:29.647Z,100612.03
2023-03-18T03:30:59.589Z,100613.77
2023-03-18T03:34:27.690Z,100612.73
2023-03-18T03:37:55.187Z,100608.95
2023-03-18T03:41:23.415Z,100611.88
2023-03-18T03:44:51.374Z,100602.98
2023-03-18T03:48:18.390Z,100599.38
2023-03-18T03:51:45.830Z,100596.98
2023-03-18T03:55:17.705Z,100587.71
2023-03-18T03:58:45.074Z,100588.92
2023-03-18T04:02:12.670Z,100585.84
2023-03-18T04:05:40.190Z,100577.61
2023-03-18T04:09:07.250Z,100578.80
2023-03-18T04:12:34.852Z,100581.04
2023-03-18T04:16:02.639Z,100583.64
2023-03-18T04:19:33.645Z,100586.73
2023-03-18T04:23:08.440Z,100587.59
2023-03-18T04:26:35.721Z,100590.16
2023-03-18T04:30:04.341Z,100591.38
2023-03-18T04:33:47.682Z,100590.68
2023-03-18T04:37:20.248Z,100584.34
2023-03-18T04:40:49.451Z,100584.52
2023-03-18T04:44:18.087Z,100589.30
2023-03-18T04:47:49.740Z,100590.67
2023-03-18T04:51:17.074Z,100588.66
2023-03-18T04:54:44.859Z,100584.88
2023-03-18T04:58:12.552Z,100585.54
2023-03-18T05:01:43.187Z,100585.87
2023-03-18T05:05:12.086Z,100588.07
2023-03-18T05:08:43.858Z,100580.48
2023-03-18T05:12:16.127Z,100578.05
2023-03-18T05:15:43.092Z,100575.99
2023-03-18T05:19:09.950Z,100574.96
2023-03-18T05:22:39.699Z,100570.84
2023-03-18T05:26:13.249Z,100566.02
2023-03-18T05:29:42.260Z,100559.48
2023-03-18T05:33:14.143Z,100553.09
2023-03-18T05:36:52.332Z,100548.07
2023-03-18T05:40:19.986Z,100540.49
2023-03-18T05:43:58.789Z,100540.13
2023-03-18T05:47:26.158Z,100540.46
2023-03-18T05:51:01.617Z,100548.14
2023-03-18T05:54:30.456Z,100547.93
2023-03-18T05:57:57.856Z,100547.38
2023-03-18T06:01:26.954Z,100547.84
2023-03-18T06:04:54.880Z,100549.13
2023-03-18T06:08:22.573Z,100544.13
2023-03-18T06:11:49.573Z,100543.02
2023-03-18T06:15:17.521Z,100552.55
2023-03-18T06:18:45.294Z,100557.56
2023-03-18T06:22:15.622Z,100560.01
2023-03-18T06:25:43.457Z,100564.56
2023-03-18T06:29:11.017Z,100565.30
2023-03-18T06:32:38.640Z,100570.84
2023-03-18T06:36:06.329Z,100571.75
2023-03-18T06:39:32.988Z,100574.39
2023-03-18T06:43:03.448Z,100579.59
2023-03-18T06:46:34.743Z,100579.46
2023-03-18T06:50:02.411Z,100581.41
2023-03-18T06:53:31.918Z,100591.52
2023-03-18T06:56:59.023Z,100598.82
2023-03-18T07:00:27.186Z,100598.04
2023-03-18T07:03:54.286Z,100601.42
2023-03-18T07:07:22.546Z,100602.37
2023-03-18T07:10:50.356Z,100601.07
2023-03-18T07:14:18.656Z,100602.34
2023-03-18T07:17:46.927Z,100605.54
2023-03-18T07:21:14.076Z,100612.34
2023-03-18T07:24:41.033Z,100611.50
2023-03-18T07:28:07.798Z,100611.46
2023-03-18T07:31:34.444Z,100610.77
2023-03-18T07:35:01.026Z,100614.95
2023-03-18T07:38:27.830Z,100617.83
2023-03-18T07:41:54.515Z,100613.67
2023-03-18T07:45:23.374Z,100619.70
2023-03-18T07:48:50.704Z,100614.33
2023-03-18T07:52:18.330Z,100613.84
2023-03-18T07:55:46.489Z,100610.25
2023-03-18T07:59:12.965Z,100607.27
2023-03-18T08:02:40.354Z,100612.29
2023-03-18T08:06:08.306Z,100609.90
2023-03-18T08:09:35.049Z,100604.61
2023-03-18T08:13:01.632Z,100601.77
2023-03-18T08:16:31.399Z,100604.85
2023-03-18T08:19:58.638Z,100597.75
2023-03-18T08:23:26.058Z,100601.80
2023-03-18T08:26:52.721Z,100609.33
2023-03-18T08:30:20.103Z,100604.46
2023-03-18T08:33:49.675Z,100609.12
2023-03-18T08:37:16.369Z,100599.92
2023-03-18T08:40:46.577Z,100597.69
2023-03-18T08:44:13.384Z,100591.70
2023-03-18T08:47:40.072Z,100590.27
2023-03-18T08:51:09.501Z,100587.23
2023-03-18T08:54:38.827Z,100578.70
2023-03-18T08:58:05.912Z,100581.85
2023-03-18T09:01:33.240Z,100578.50
2023-03-18T09:05:00.063Z,100573.83
2023-03-18T09:08:31.548Z,100574.64
2023-03-18T09:11:58.206Z,100571.63
2023-03-18T09:15:27.662Z,100572.20
2023-03-18T09:18:54.440Z,100573.48
2023-03-18T09:22:22.036Z,100575.59
2023-03-18T09:25:50.505Z,100574.96
2023-03-18T09:29:17.456Z,100583.64
2023-03-18T09:32:44.962Z,100573.20
2023-03-18T09:36:14.124Z,100574.75
2023-03-18T09:39:44.984Z,100573.65
2023-03-18T09:43:30.400Z,100561.42
2023-03-18T09:47:25.754Z,100562.07
2023-03-18T09:51:04.347Z,100559.55
2023-03-18T09:54:39.555Z,100556.15
2023-03-18T09:58:17.503Z,100558.85
2023-03-18T10:01:47.941Z,100558.05
2023-03-18T10:05:19.811Z,100556.02
2023-03-18T10:08:59.970Z,100555.13
2023-03-18T10:12:36.062Z,100547.27
2023-03-18T10:16:09.673Z,100550.53
2023-03-18T10:19:38.792Z,100550.45
2023-03-18T10:23:15.218Z,100547.95
2023-03-18T10:26:49.078Z,100545.48
2023-03-18T10:30:32.778Z,100539.59
2023-03-18T10:33:59.218Z,100533.07
2023-03-18T10:37:36.529Z,100526.13
2023-03-18T10:41:10.804Z,100525.34
2023-03-18T10:44:43.027Z,100527.83
2023-03-18T10:48:16.866Z,100524.27
2023-03-18T10:51:52.743Z,100522.35
2023-03-18T10:55:23.082Z,100520.13
2023-03-18T10:58:51.167Z,100520.70
2023-03-18T11:02:23.035Z,100522.39
2023-03-18T11:05:52.531Z,100527.89
2023-03-18T11:09:22.944Z,100527.15
2023-03-18T11:12:50.897Z,100528.67
2023-03-18T11:16:30.184Z,100528.51
2023-03-18T11:20:08.324Z,100525.41
2023-03-18T11:23:49.291Z,100526.19
2023-03-18T11:27:51.369Z,100520.98
2023-03-18T11:31:25.259Z,100522.80
2023-03-18T11:34:55.393Z,100518.15
2023-03-18T11:38:28.926Z,100515.34
2023-03-18T11:41:57.965Z,100511.95
2023-03-18T11:45:48.981Z,100502.48
2023-03-18T11:49:19.661Z,100498.17
2023-03-18T11:52:53.302Z,100501.96
2023-03-18T11:56:31.028Z,100512.10
2023-03-18T12:00:17.848Z,100512.56
2023-03-18T12:04:08.103Z,100512.20
2023-03-18T12:07:56.648Z,100500.48
2023-03-18T12:11:33.327Z,100497.05
2023-03-18T12:15:11.904Z,100495.61
2023-03-18T12:18:59.377Z,100487.09
2023-03-18T12:23:00.404Z,100488.98
2023-03-18T12:26:36.443Z,100497.02
2023-03-18T12:30:38.522Z,100497.62
2023-03-18T12:34:06.351Z,100498.94
2023-03-18T12:37:44.856Z,100498.61
2023-03-18T12:41:17.941Z,100493.80
2023-03-18T12:44:58.035Z,100502.38
2023-03-18T12:48:44.933Z,100497.69
2023-03-18T12:52:19.647Z,100494.19
2023-03-18T12:55:49.466Z,100503.42
2023-03-18T12:59:25.920Z,100507.77
2023-03-18T13:03:00.248Z,100508.08
2023-03-18T13:06:32.309Z,100510.30
2023-03-18T13:10:04.561Z,100508.26
2023-03-18T13:13:34.791Z,100510.66
2023-03-18T13:17:02.793Z,100511.95
2023-03-18T13:20:34.733Z,100508.46
2023-03-18T13:24:32.388Z,100501.28
2023-03-18T13:28:19.454Z,100505.39
2023-03-18T13:31:56.331Z,100509.73
2023-03-18T13:35:47.409Z,100509.84
2023-03-18T13:39:37.349Z,100506.79
2023-03-18T13:43:04.709Z,100501.68
2023-03-18T13:46:35.200Z,100503.70
2023-03-18T13:50:05.840Z,100506.75
2023-03-18T13:53:35.809Z,100505.02
2023-03-18T13:57:20.656Z,100505.38
2023-03-18T14:01:09.317Z,100504.15
2023-03-18T14:04:49.508Z,100512.48
2023-03-18T14:08:38.625Z,100505.67
2023-03-18T14:12:39.205Z,100506.46
2023-03-18T14:16:12.923Z,100503.95
2023-03-18T14:19:42.560Z,100500.67
2023-03-18T14:23:39.641Z,100497.03
2023-03-18T14:27:21.978Z,100500.58
2023-03-18T14:30:56.293Z,100500.38
2023-03-18T14:34:35.472Z,100491.21
2023-03-18T14:38:12.842Z,100492.11
2023-03-18T14:41:43.635Z,100482.39
2023-03-18T14:45:21.346Z,100474.86
2023-03-18T14:48:52.607Z,100476.45
2023-03-18T14:52:30.064Z,100479.68
2023-03-18T14:55:57.432Z,100476.10
2023-03-18T14:59:27.279Z,100475.92
2023-03-18T15:03:05.774Z,100477.23
2023-03-18T15:06:33.929Z,100473.40
2023-03-18T15:10:02.870Z,100478.48
2023-03-18T15:13:30.736Z,100483.09
2023-03-18T15:17:01.830Z,100482.81
2023-03-18T15:20:29.966Z,100476.77
2023-03-18T15:24:00.183Z,100472.79
2023-03-18T15:27:31.242Z,100475.21
2023-03-18T15:31:02.865Z,100471.50
2023-03-18T15:34:36.315Z,100465.17
2023-03-18T15:38:14.851Z,100465.79
2023-03-18T15:41:43.719Z,100469.61
2023-03-18T15:45:19.703Z,100474.56
2023-03-18T15:48:54.985Z,100481.23
2023-03-18T15:52:29.514Z,100480.92
2023-03-18T15:55:59.158Z,100475.75
2023-03-18T15:59:33.496Z,100474.86
2023-03-18T16:03:04.206Z,100481.15
2023-03-18T16:06:34.683Z,100479.11
2023-03-18T16:10:01.899Z,100483.91
2023-03-18T16:13:34.757Z,100484.73
2023-03-18T16:17:02.122Z,100491.27
2023-03-18T16:20:31.905Z,100489.81
2023-03-18T16:23:59.972Z,100490.29
2023-03-18T16:27:34.952Z,100496.95
2023-03-18T16:31:02.048Z,100491.00
2023-03-18T16:34:29.792Z,100486.52
2023-03-18T16:37:57.724Z,100486.93
2023-03-18T16:41:25.940Z,100488.20
2023-03-18T16:44:53.746Z,100485.05
2023-03-18T16:48:23.600Z,100490.77
2023-03-18T16:51:54.777Z,100493.75
2023-03-18T16:55:24.244Z,100495.51
2023-03-18T16:58:52.824Z,100495.36
2023-03-18T17:02:32.987Z,100500.07
2023-03-18T17:06:00.521Z,100511.20
2023-03-18T17:09:28.431Z,100509.98
2023-03-18T17:12:59.786Z,100512.83
2023-03-18T17:16:31.024Z,100509.15
2023-03-18T17:20:00.088Z,100516.04
2023-03-18T17:23:30.631Z,100516.69
2023-03-18T17:26:58.958Z,100521.95
2023-03-18T17:30:30.274Z,100520.86
2023-03-18T17:34:03.692Z,100523.77
2023-03-18T17:37:33.029Z,100529.63
2023-03-18T17:41:03.305Z,100531.77
2023-03-18T17:44:32.467Z,100537.98
2023-03-18T17:48:16.300Z,100540.73
2023-03-18T17:51:48.884Z,100534.30
2023-03-18T17:55:25.370Z,100538.98
2023-03-18T17:59:00.221Z,100542.59
2023-03-18T18:02:32.947Z,100540.77
2023-03-18T18:06:05.316Z,100542.00
2023-03-18T18:09:34.325Z,100537.63
2023-03-18T18:13:03.133Z,100536.55
2023-03-18T18:16:31.490Z,100535.14
2023-03-18T18:20:01.374Z,100532.00
2023-03-18T18:23:36.155Z,100532.84
2023-03-18T18:27:07.580Z,100532.63
2023-03-18T18:30:35.702Z,100531.07
2023-03-18T18:34:02.691Z,100532.27
2023-03-18T18:37:33.912Z,100529.98
2023-03-18T18:41:03.752Z,100528.27
2023-03-18T18:44:32.715Z,100528.14
2023-03-18T18:48:00.257Z,100527.63
2023-03-18T18:51:28.045Z,100527.93
2023-03-18T18:54:58.402Z,100527.23
2023-03-18T18:58:29.133Z,100526.95
2023-03-18T19:02:01.208Z,100536.92
2023-03-18T19:05:31.052Z,100536.70
2023-03-18T19:08:59.872Z,100542.95
2023-03-18T19:12:34.896Z,100536.58
2023-03-18T19:16:04.842Z,100540.70
2023-03-18T19:19:34.855Z,100546.42
2023-03-18T19:23:03.688Z,100548.27
2023-03-18T19:26:32.217Z,100547.67
2023-03-18T19:30:01.687Z,100550.48
2023-03-18T19:33:30.128Z,100548.84
2023-03-18T19:36:58.797Z,100544.77
2023-03-18T19:40:31.634Z,100544.85
2023-03-18T19:44:04.363Z,100544.42
2023-03-18T19:47:33.498Z,100549.20
2023-03-18T19:51:00.344Z,100551.95
2023-03-18T19:54:33.009Z,100553.16
2023-03-18T19:58:01.359Z,100551.29
2023-03-18T20:01:30.979Z,100551.85
2023-03-18T20:05:00.258Z,100547.37
2023-03-18T20:08:29.236Z,100547.31
2023-03-18T20:12:05.974Z,100543.14
2023-03-18T20:15:34.125Z,100545.98
2023-03-18T20:19:02.132Z,100552.34
2023-03-18T20:22:36.578Z,100551.58
2023-03-18T20:26:04.061Z,100551.52
2023-03-18T20:29:33.559Z,100554.05
2023-03-18T20:33:07.430Z,100550.73
2023-03-18T20:36:36.037Z,100546.23
2023-03-18T20:40:07.395Z,100550.93
2023-03-18T20:43:35.003Z,100546.16
2023-03-18T20:47:02.254Z,100544.02
2023-03-18T20:50:31.512Z,100547.23
2023-03-18T20:54:04.704Z,100547.61
2023-03-18T20:57:36.079Z,100544.05
2023-03-18T21:01:06.022Z,100540.67
2023-03-18T21:04:34.993Z,100541.04
2023-03-18T21:08:02.367Z,100543.15
2023-03-18T21:11:33.362Z,100544.73
2023-03-18T21:15:00.732Z,100543.55
2023-03-18T21:18:29.377Z,100544.48
2023-03-18T21:21:56.633Z,100539.52
2023-03-18T21:25:27.515Z,100542.81
2023-03-18T21:28:54.781Z,100541.52
2023-03-18T21:32:31.847Z,100542.18
2023-03-18T21:35:59.490Z,100546.19
2023-03-18T21:39:26.874Z,100544.19
2023-03-18T21:42:56.001Z,100543.85
2023-03-18T21:46:27.353Z,100539.75
2023-03-18T21:49:53.896Z,100537.36
2023-03-18T21:53:27.405Z,100529.45
2023-03-18T21:56:56.909Z,100532.79
2023-03-18T22:00:25.418Z,100525.08
2023-03-18T22:03:53.974Z,100524.76
2023-03-18T22:07:23.159Z,100521.23
2023-03-18T22:10:51.276Z,100522.27
2023-03-18T22:14:18.442Z,100524.27
2023-03-18T22:17:47.990Z,100528.46
2023-03-18T22:21:20.547Z,100530.60
2023-03-18T22:24:48.246Z,100532.23
2023-03-18T22:28:15.812Z,100531.43
2023-03-18T22:31:43.417Z,100529.59
2023-03-18T22:35:17.286Z,100534.00
2023-03-18T22:38:46.892Z,100530.16
2023-03-18T22:42:19.492Z,100529.53
2023-03-18T22:45:46.127Z,100530.95
2023-03-18T22:49:13.055Z,100533.17
2023-03-18T22:52:40.753Z,100531.36
2023-03-18T22:56:15.684Z,100530.21
2023-03-18T22:59:42.759Z,100525.28
2023-03-18T23:03:15.142Z,100528.29
2023-03-18T23:06:51.290Z,100527.84
2023-03-18T23:10:19.484Z,100527.05
2023-03-18T23:13:51.064Z,100528.36
2023-03-18T23:17:19.940Z,100531.60
2023-03-18T23:20:49.063Z,100537.85
2023-03-18T23:24:16.270Z,100536.65
2023-03-18T23:27:46.292Z,100540.11
2023-03-18T23:31:15.790Z,100537.41
2023-03-18T23:34:43.359Z,100534.63
2023-03-18T23:38:10.243Z,100532.61
2023-03-18T23:41:37.876Z,100535.09
2023-03-18T23:45:05.452Z,100538.09
2023-03-18T23:48:33.048Z,100537.70
2023-03-18T23:52:00.513Z,100540.45
2023-03-18T23:55:35.447Z,100545.42
2023-03-18T23:59:03.759Z,100539.31
